HKEL

Eldoret International Airport

Eldoret, Kenya
METAR HKEL 221500Z 30004KT 9999 FEW022CB SCT023 BKN260 19/13 Q1022
Observed Flight Rules
Sep-22 @ 15:00 UTC (31 minutes ago) Visual Flight Rules
Wind Visibility Clouds
300° at 4 knots 10,000+ meters
Temperatures Readings
Current 19°C / 66°F
Dewpoint 13°C / 55°F
Humidity 68%
Altimeter 30.18" Hg
Pressure 1022 hPa
Elevation 2133
METAR HKEL 221500Z 30004KT 9999 FEW022CB SCT023 BKN260 19/13 Q1022
Observed Flight Rules
Sep-22 @ 15:00 UTC
(31 minutes ago)
VFR
Wind Visibility
300° at 4 knots 10,000+ meters
Clouds
Temperature Dewpoint
19°C / 66°F 13°C / 55°F
Humidity Altimeter Pressure
68% 30.18" Hg 1022 hPa